sensor_id;sensor_type;location;lat;lon;timestamp;pressure;altitude;pressure_sealevel;temperature;humidity
46211;BME280;52144;48.040;-1.594;2022-07-29T00:02:13;100990.31;;;22.03;73.69
46211;BME280;52144;48.040;-1.594;2022-07-29T00:04:42;100985.44;;;21.97;73.01
46211;BME280;52144;48.040;-1.594;2022-07-29T00:07:10;100989.91;;;21.98;72.87
46211;BME280;52144;48.040;-1.594;2022-07-29T00:09:39;100986.28;;;21.88;74.09
46211;BME280;52144;48.040;-1.594;2022-07-29T00:12:17;100987.00;;;21.90;73.83
46211;BME280;52144;48.040;-1.594;2022-07-29T00:14:51;100967.16;;;21.90;73.83
46211;BME280;52144;48.040;-1.594;2022-07-29T00:17:19;100974.56;;;21.78;74.08
46211;BME280;52144;48.040;-1.594;2022-07-29T00:19:48;100972.19;;;21.63;74.93
46211;BME280;52144;48.040;-1.594;2022-07-29T00:22:16;100971.13;;;21.86;74.35
46211;BME280;52144;48.040;-1.594;2022-07-29T00:24:44;100971.84;;;21.88;74.00
46211;BME280;52144;48.040;-1.594;2022-07-29T00:27:12;100960.53;;;21.73;73.74
46211;BME280;52144;48.040;-1.594;2022-07-29T00:29:40;100963.84;;;21.76;74.63
46211;BME280;52144;48.040;-1.594;2022-07-29T00:32:07;100961.41;;;21.83;73.74
46211;BME280;52144;48.040;-1.594;2022-07-29T00:34:35;100957.91;;;21.92;74.07
46211;BME280;52144;48.040;-1.594;2022-07-29T00:37:22;100961.72;;;21.90;73.70
46211;BME280;52144;48.040;-1.594;2022-07-29T00:39:50;100960.75;;;21.91;73.52
46211;BME280;52144;48.040;-1.594;2022-07-29T00:42:18;100960.44;;;21.84;73.59
46211;BME280;52144;48.040;-1.594;2022-07-29T00:44:46;100952.56;;;21.81;74.28
46211;BME280;52144;48.040;-1.594;2022-07-29T00:47:14;100958.00;;;21.81;73.56
46211;BME280;52144;48.040;-1.594;2022-07-29T00:49:42;100958.00;;;21.81;73.50
46211;BME280;52144;48.040;-1.594;2022-07-29T00:52:10;100956.00;;;21.83;73.04
46211;BME280;52144;48.040;-1.594;2022-07-29T00:54:44;100952.31;;;21.84;73.08
46211;BME280;52144;48.040;-1.594;2022-07-29T00:57:12;100948.31;;;21.88;73.05
46211;BME280;52144;48.040;-1.594;2022-07-29T00:59:40;100945.19;;;21.52;74.36
46211;BME280;52144;48.040;-1.594;2022-07-29T01:02:08;100941.31;;;21.55;73.97
46211;BME280;52144;48.040;-1.594;2022-07-29T01:04:35;100946.16;;;21.51;74.66
46211;BME280;52144;48.040;-1.594;2022-07-29T01:07:04;100940.53;;;21.64;73.58
46211;BME280;52144;48.040;-1.594;2022-07-29T01:09:32;100947.09;;;21.71;73.55
46211;BME280;52144;48.040;-1.594;2022-07-29T01:12:15;100941.69;;;21.71;72.35
46211;BME280;52144;48.040;-1.594;2022-07-29T01:14:44;100945.28;;;21.81;71.98
46211;BME280;52144;48.040;-1.594;2022-07-29T01:17:18;100937.72;;;21.85;71.90
46211;BME280;52144;48.040;-1.594;2022-07-29T01:19:56;100943.63;;;21.90;71.93
46211;BME280;52144;48.040;-1.594;2022-07-29T01:22:29;100940.19;;;21.98;71.49
46211;BME280;52144;48.040;-1.594;2022-07-29T01:25:19;100940.28;;;21.77;71.90
46211;BME280;52144;48.040;-1.594;2022-07-29T01:28:04;100926.72;;;21.77;72.26
46211;BME280;52144;48.040;-1.594;2022-07-29T01:30:40;100936.41;;;21.70;71.90
46211;BME280;52144;48.040;-1.594;2022-07-29T01:33:13;100934.81;;;21.67;72.55
46211;BME280;52144;48.040;-1.594;2022-07-29T01:36:17;100936.50;;;21.58;72.10
46211;BME280;52144;48.040;-1.594;2022-07-29T01:38:51;100938.19;;;21.50;72.69
46211;BME280;52144;48.040;-1.594;2022-07-29T01:41:21;100939.88;;;21.51;72.47
46211;BME280;52144;48.040;-1.594;2022-07-29T01:43:52;100935.69;;;21.68;71.55
46211;BME280;52144;48.040;-1.594;2022-07-29T01:46:29;100934.69;;;21.69;72.03
46211;BME280;52144;48.040;-1.594;2022-07-29T01:49:02;100935.66;;;21.58;71.85
46211;BME280;52144;48.040;-1.594;2022-07-29T01:51:36;100932.78;;;21.59;71.92
46211;BME280;52144;48.040;-1.594;2022-07-29T01:54:10;100935.22;;;21.62;71.33
46211;BME280;52144;48.040;-1.594;2022-07-29T01:56:41;100931.41;;;21.75;70.85
46211;BME280;52144;48.040;-1.594;2022-07-29T01:59:10;100935.44;;;21.80;70.32
46211;BME280;52144;48.040;-1.594;2022-07-29T02:01:42;100935.19;;;21.93;69.32
46211;BME280;52144;48.040;-1.594;2022-07-29T02:04:11;100937.22;;;22.01;69.29
46211;BME280;52144;48.040;-1.594;2022-07-29T02:06:59;100937.19;;;21.91;69.38
46211;BME280;52144;48.040;-1.594;2022-07-29T02:09:28;100936.91;;;21.94;68.59
46211;BME280;52144;48.040;-1.594;2022-07-29T02:11:59;100941.50;;;22.03;67.79
46211;BME280;52144;48.040;-1.594;2022-07-29T02:14:37;100942.19;;;21.96;68.60
46211;BME280;52144;48.040;-1.594;2022-07-29T02:17:07;100943.47;;;22.01;67.90
46211;BME280;52144;48.040;-1.594;2022-07-29T02:19:37;100941.47;;;21.84;67.91
46211;BME280;52144;48.040;-1.594;2022-07-29T02:22:06;100948.50;;;21.66;68.58
46211;BME280;52144;48.040;-1.594;2022-07-29T02:24:35;100944.44;;;21.81;68.50
46211;BME280;52144;48.040;-1.594;2022-07-29T02:27:04;100949.13;;;21.79;67.94
46211;BME280;52144;48.040;-1.594;2022-07-29T02:29:35;100947.47;;;21.97;66.98
46211;BME280;52144;48.040;-1.594;2022-07-29T02:32:07;100946.31;;;22.00;66.69
46211;BME280;52144;48.040;-1.594;2022-07-29T02:34:37;100950.03;;;21.89;66.62
46211;BME280;52144;48.040;-1.594;2022-07-29T02:37:08;100944.97;;;21.75;67.42
46211;BME280;52144;48.040;-1.594;2022-07-29T02:39:37;100941.72;;;21.81;66.82
46211;BME280;52144;48.040;-1.594;2022-07-29T02:42:08;100948.31;;;21.88;66.21
46211;BME280;52144;48.040;-1.594;2022-07-29T02:44:37;100950.63;;;22.02;66.44
46211;BME280;52144;48.040;-1.594;2022-07-29T02:47:13;100949.19;;;22.08;64.85
46211;BME280;52144;48.040;-1.594;2022-07-29T02:49:48;100941.22;;;22.07;64.54
46211;BME280;52144;48.040;-1.594;2022-07-29T02:52:23;100937.94;;;22.03;62.73
46211;BME280;52144;48.040;-1.594;2022-07-29T02:54:55;100942.63;;;22.01;64.61
46211;BME280;52144;48.040;-1.594;2022-07-29T02:57:31;100950.91;;;21.99;64.07
46211;BME280;52144;48.040;-1.594;2022-07-29T03:00:04;100941.78;;;22.00;64.66
46211;BME280;52144;48.040;-1.594;2022-07-29T03:02:36;100947.22;;;22.00;64.37
46211;BME280;52144;48.040;-1.594;2022-07-29T03:05:08;100947.75;;;21.94;65.51
46211;BME280;52144;48.040;-1.594;2022-07-29T03:07:38;100959.44;;;21.85;65.53
46211;BME280;52144;48.040;-1.594;2022-07-29T03:10:08;100951.97;;;21.77;66.06
46211;BME280;52144;48.040;-1.594;2022-07-29T03:12:39;100952.31;;;21.94;65.06
46211;BME280;52144;48.040;-1.594;2022-07-29T03:15:08;100964.59;;;21.98;64.54
46211;BME280;52144;48.040;-1.594;2022-07-29T03:17:39;100964.34;;;22.01;63.77
46211;BME280;52144;48.040;-1.594;2022-07-29T03:20:08;100960.47;;;22.03;63.63
46211;BME280;52144;48.040;-1.594;2022-07-29T03:22:39;100961.50;;;22.02;63.57
46211;BME280;52144;48.040;-1.594;2022-07-29T03:25:09;100960.91;;;21.99;63.38
46211;BME280;52144;48.040;-1.594;2022-07-29T03:27:37;100961.75;;;21.99;62.72
46211;BME280;52144;48.040;-1.594;2022-07-29T03:30:06;100961.41;;;21.83;63.48
46211;BME280;52144;48.040;-1.594;2022-07-29T03:32:35;100958.53;;;21.75;63.51
46211;BME280;52144;48.040;-1.594;2022-07-29T03:35:05;100950.69;;;21.72;63.50
46211;BME280;52144;48.040;-1.594;2022-07-29T03:37:34;100952.22;;;21.64;64.16
46211;BME280;52144;48.040;-1.594;2022-07-29T03:40:05;100948.53;;;21.75;63.53
46211;BME280;52144;48.040;-1.594;2022-07-29T03:42:37;100938.56;;;21.76;63.66
46211;BME280;52144;48.040;-1.594;2022-07-29T03:45:10;100945.78;;;21.66;64.44
46211;BME280;52144;48.040;-1.594;2022-07-29T03:47:41;100949.44;;;21.86;63.80
46211;BME280;52144;48.040;-1.594;2022-07-29T03:50:19;100947.13;;;21.81;63.92
46211;BME280;52144;48.040;-1.594;2022-07-29T03:52:49;100957.91;;;21.92;64.29
46211;BME280;52144;48.040;-1.594;2022-07-29T03:55:17;100954.16;;;21.93;64.24
46211;BME280;52144;48.040;-1.594;2022-07-29T03:57:45;100960.31;;;21.95;63.97
46211;BME280;52144;48.040;-1.594;2022-07-29T04:00:14;100955.47;;;21.99;63.92
46211;BME280;52144;48.040;-1.594;2022-07-29T04:02:43;100952.91;;;21.97;63.43
46211;BME280;52144;48.040;-1.594;2022-07-29T04:05:15;100969.22;;;22.07;63.46
46211;BME280;52144;48.040;-1.594;2022-07-29T04:07:46;100964.84;;;21.85;64.08
46211;BME280;52144;48.040;-1.594;2022-07-29T04:10:14;100964.00;;;21.84;64.94
46211;BME280;52144;48.040;-1.594;2022-07-29T04:12:56;100964.84;;;21.85;64.64
46211;BME280;52144;48.040;-1.594;2022-07-29T04:15:23;100959.97;;;21.79;64.32
46211;BME280;52144;48.040;-1.594;2022-07-29T04:17:57;100964.69;;;21.77;64.78
46211;BME280;52144;48.040;-1.594;2022-07-29T04:20:25;100969.94;;;21.69;65.11
46211;BME280;52144;48.040;-1.594;2022-07-29T04:22:54;100962.81;;;21.68;65.09
46211;BME280;52144;48.040;-1.594;2022-07-29T04:25:22;100968.66;;;21.73;64.62
46211;BME280;52144;48.040;-1.594;2022-07-29T04:27:49;100969.13;;;21.78;64.23
46211;BME280;52144;48.040;-1.594;2022-07-29T04:30:31;100969.94;;;21.69;64.97
46211;BME280;52144;48.040;-1.594;2022-07-29T04:33:00;100972.19;;;21.63;65.02
46211;BME280;52144;48.040;-1.594;2022-07-29T04:35:28;100968.38;;;21.45;65.84
46211;BME280;52144;48.040;-1.594;2022-07-29T04:38:05;100970.84;;;21.48;66.05
46211;BME280;52144;48.040;-1.594;2022-07-29T04:40:42;100968.13;;;21.48;66.57
46211;BME280;52144;48.040;-1.594;2022-07-29T04:43:10;100967.03;;;21.60;65.42
46211;BME280;52144;48.040;-1.594;2022-07-29T04:45:41;100972.91;;;21.66;65.46
46211;BME280;52144;48.040;-1.594;2022-07-29T04:48:08;100969.47;;;21.63;65.56
46211;BME280;52144;48.040;-1.594;2022-07-29T04:50:38;100976.03;;;21.61;65.58
46211;BME280;52144;48.040;-1.594;2022-07-29T04:53:07;100977.53;;;21.44;66.18
46211;BME280;52144;48.040;-1.594;2022-07-29T04:55:35;100987.53;;;21.53;65.45
46211;BME280;52144;48.040;-1.594;2022-07-29T04:58:04;100988.44;;;21.63;65.63
46211;BME280;52144;48.040;-1.594;2022-07-29T05:00:32;100984.22;;;21.71;64.90
46211;BME280;52144;48.040;-1.594;2022-07-29T05:03:00;100983.28;;;21.91;64.72
46211;BME280;52144;48.040;-1.594;2022-07-29T05:05:28;100987.16;;;21.89;65.64
46211;BME280;52144;48.040;-1.594;2022-07-29T05:07:56;100994.28;;;21.90;65.69
46211;BME280;52144;48.040;-1.594;2022-07-29T05:10:25;100987.94;;;21.70;65.92
46211;BME280;52144;48.040;-1.594;2022-07-29T05:12:53;100985.94;;;21.72;65.71
46211;BME280;52144;48.040;-1.594;2022-07-29T05:15:20;100985.97;;;21.81;65.58
46211;BME280;52144;48.040;-1.594;2022-07-29T05:17:48;100991.13;;;21.84;65.53
46211;BME280;52144;48.040;-1.594;2022-07-29T05:20:16;100993.84;;;21.84;65.31
46211;BME280;52144;48.040;-1.594;2022-07-29T05:22:44;100996.25;;;21.78;66.58
46211;BME280;52144;48.040;-1.594;2022-07-29T05:25:12;100999.34;;;21.73;66.34
46211;BME280;52144;48.040;-1.594;2022-07-29T05:27:41;100998.00;;;21.58;67.05
46211;BME280;52144;48.040;-1.594;2022-07-29T05:30:09;101002.53;;;21.57;67.22
46211;BME280;52144;48.040;-1.594;2022-07-29T05:32:37;101003.91;;;21.73;67.00
46211;BME280;52144;48.040;-1.594;2022-07-29T05:35:06;101000.22;;;21.74;67.30
46211;BME280;52144;48.040;-1.594;2022-07-29T05:37:34;101006.75;;;21.71;67.41
46211;BME280;52144;48.040;-1.594;2022-07-29T05:40:02;101006.69;;;21.52;68.33
46211;BME280;52144;48.040;-1.594;2022-07-29T05:42:30;101010.41;;;21.60;67.61
46211;BME280;52144;48.040;-1.594;2022-07-29T05:44:59;101012.72;;;21.65;67.55
46211;BME280;52144;48.040;-1.594;2022-07-29T05:47:27;101012.41;;;21.58;67.39
46211;BME280;52144;48.040;-1.594;2022-07-29T05:49:55;101009.88;;;21.97;66.66
46211;BME280;52144;48.040;-1.594;2022-07-29T05:52:23;101007.69;;;21.91;67.11
46211;BME280;52144;48.040;-1.594;2022-07-29T05:54:51;101013.41;;;21.88;66.63
46211;BME280;52144;48.040;-1.594;2022-07-29T05:57:20;101008.72;;;21.90;67.43
46211;BME280;52144;48.040;-1.594;2022-07-29T05:59:49;101020.53;;;21.89;67.44
46211;BME280;52144;48.040;-1.594;2022-07-29T06:02:18;101018.91;;;22.08;66.50
46211;BME280;52144;48.040;-1.594;2022-07-29T06:04:46;101027.50;;;22.13;66.10
46211;BME280;52144;48.040;-1.594;2022-07-29T06:07:15;101022.78;;;22.15;65.90
46211;BME280;52144;48.040;-1.594;2022-07-29T06:09:43;101034.38;;;22.17;65.91
46211;BME280;52144;48.040;-1.594;2022-07-29T06:12:11;101025.22;;;22.18;66.01
46211;BME280;52144;48.040;-1.594;2022-07-29T06:14:38;101020.94;;;22.15;65.69
46211;BME280;52144;48.040;-1.594;2022-07-29T06:17:06;101022.56;;;22.28;66.80
46211;BME280;52144;48.040;-1.594;2022-07-29T06:19:35;101019.00;;;22.27;66.32
46211;BME280;52144;48.040;-1.594;2022-07-29T06:22:04;101018.41;;;22.23;66.23
46211;BME280;52144;48.040;-1.594;2022-07-29T06:24:32;101031.00;;;22.34;65.99
46211;BME280;52144;48.040;-1.594;2022-07-29T06:26:59;101033.75;;;22.54;65.15
46211;BME280;52144;48.040;-1.594;2022-07-29T06:29:27;101040.09;;;22.74;64.57
46211;BME280;52144;48.040;-1.594;2022-07-29T06:31:55;101027.34;;;22.74;65.54
46211;BME280;52144;48.040;-1.594;2022-07-29T06:34:23;101035.34;;;22.86;65.30
46211;BME280;52144;48.040;-1.594;2022-07-29T06:36:52;101030.19;;;22.63;64.86
46211;BME280;52144;48.040;-1.594;2022-07-29T06:39:20;101032.50;;;22.68;64.91
46211;BME280;52144;48.040;-1.594;2022-07-29T06:41:48;101035.06;;;22.89;64.24
46211;BME280;52144;48.040;-1.594;2022-07-29T06:44:17;101041.22;;;22.91;65.18
46211;BME280;52144;48.040;-1.594;2022-07-29T06:46:45;101041.41;;;23.09;64.10
46211;BME280;52144;48.040;-1.594;2022-07-29T06:49:15;101046.41;;;23.13;64.00
46211;BME280;52144;48.040;-1.594;2022-07-29T06:51:43;101049.97;;;22.94;63.94
46211;BME280;52144;48.040;-1.594;2022-07-29T06:54:12;101051.13;;;23.11;64.06
46211;BME280;52144;48.040;-1.594;2022-07-29T06:56:40;101051.41;;;23.18;63.66
46211;BME280;52144;48.040;-1.594;2022-07-29T06:59:11;101063.97;;;23.38;62.66
46211;BME280;52144;48.040;-1.594;2022-07-29T07:01:40;101063.09;;;23.57;63.23
46211;BME280;52144;48.040;-1.594;2022-07-29T07:04:08;101058.00;;;23.92;61.72
46211;BME280;52144;48.040;-1.594;2022-07-29T07:06:37;101055.16;;;23.83;60.46
46211;BME280;52144;48.040;-1.594;2022-07-29T07:09:05;101051.09;;;23.97;61.27
46211;BME280;52144;48.040;-1.594;2022-07-29T07:11:34;101061.06;;;23.69;60.51
46211;BME280;52144;48.040;-1.594;2022-07-29T07:14:02;101057.00;;;23.83;60.60
46211;BME280;52144;48.040;-1.594;2022-07-29T07:16:31;101048.38;;;23.97;59.78
46211;BME280;52144;48.040;-1.594;2022-07-29T07:18:59;101059.88;;;24.19;56.70
46211;BME280;52144;48.040;-1.594;2022-07-29T07:21:27;101057.81;;;24.31;56.68
46211;BME280;52144;48.040;-1.594;2022-07-29T07:23:56;101061.41;;;24.31;55.99
46211;BME280;52144;48.040;-1.594;2022-07-29T07:26:25;101068.19;;;24.55;55.81
46211;BME280;52144;48.040;-1.594;2022-07-29T07:28:54;101072.78;;;24.72;56.05
46211;BME280;52144;48.040;-1.594;2022-07-29T07:31:22;101076.34;;;24.73;55.40
46211;BME280;52144;48.040;-1.594;2022-07-29T07:33:50;101074.81;;;24.88;55.58
46211;BME280;52144;48.040;-1.594;2022-07-29T07:36:19;101080.28;;;24.88;54.14
46211;BME280;52144;48.040;-1.594;2022-07-29T07:38:47;101079.88;;;25.01;53.80
46211;BME280;52144;48.040;-1.594;2022-07-29T07:41:15;101081.59;;;25.20;54.00
46211;BME280;52144;48.040;-1.594;2022-07-29T07:43:43;101080.88;;;25.36;53.71
46211;BME280;52144;48.040;-1.594;2022-07-29T07:46:13;101078.72;;;25.39;53.14
46211;BME280;52144;48.040;-1.594;2022-07-29T07:48:41;101089.47;;;25.23;53.95
46211;BME280;52144;48.040;-1.594;2022-07-29T07:51:08;101092.66;;;25.00;53.79
46211;BME280;52144;48.040;-1.594;2022-07-29T07:53:36;101097.63;;;25.05;55.00
46211;BME280;52144;48.040;-1.594;2022-07-29T07:56:04;101090.22;;;25.15;54.73
46211;BME280;52144;48.040;-1.594;2022-07-29T07:58:37;101096.09;;;25.20;54.30
46211;BME280;52144;48.040;-1.594;2022-07-29T08:01:05;101099.69;;;25.21;53.21
46211;BME280;52144;48.040;-1.594;2022-07-29T08:03:34;101104.66;;;25.26;53.60
46211;BME280;52144;48.040;-1.594;2022-07-29T08:06:02;101100.25;;;25.25;54.26
46211;BME280;52144;48.040;-1.594;2022-07-29T08:08:30;101098.91;;;25.29;54.24
46211;BME280;52144;48.040;-1.594;2022-07-29T08:10:58;101101.28;;;25.50;54.24
46211;BME280;52144;48.040;-1.594;2022-07-29T08:13:34;101102.19;;;25.58;54.52
46211;BME280;52144;48.040;-1.594;2022-07-29T08:16:02;101108.34;;;25.34;54.15
46211;BME280;52144;48.040;-1.594;2022-07-29T08:18:40;101104.91;;;25.32;53.19
46211;BME280;52144;48.040;-1.594;2022-07-29T08:21:08;101101.94;;;25.43;54.08
46211;BME280;52144;48.040;-1.594;2022-07-29T08:23:40;101107.47;;;25.78;53.80
46211;BME280;52144;48.040;-1.594;2022-07-29T08:26:18;101115.09;;;25.92;54.21
46211;BME280;52144;48.040;-1.594;2022-07-29T08:28:46;101123.78;;;26.14;53.69
46211;BME280;52144;48.040;-1.594;2022-07-29T08:31:17;101125.22;;;26.34;52.75
46211;BME280;52144;48.040;-1.594;2022-07-29T08:33:46;101121.47;;;26.35;53.02
46211;BME280;52144;48.040;-1.594;2022-07-29T08:36:14;101126.81;;;26.45;53.65
46211;BME280;52144;48.040;-1.594;2022-07-29T08:38:41;101126.84;;;26.53;53.46
46211;BME280;52144;48.040;-1.594;2022-07-29T08:41:09;101128.94;;;26.25;52.38
46211;BME280;52144;48.040;-1.594;2022-07-29T08:43:39;101132.03;;;26.30;51.52
46211;BME280;52144;48.040;-1.594;2022-07-29T08:46:08;101129.72;;;26.52;53.67
46211;BME280;52144;48.040;-1.594;2022-07-29T08:48:36;101130.19;;;26.39;53.07
46211;BME280;52144;48.040;-1.594;2022-07-29T08:51:07;101134.19;;;26.53;52.45
46211;BME280;52144;48.040;-1.594;2022-07-29T08:53:36;101131.59;;;26.86;52.57
46211;BME280;52144;48.040;-1.594;2022-07-29T08:56:04;101136.38;;;26.49;52.40
46211;BME280;52144;48.040;-1.594;2022-07-29T08:58:33;101137.69;;;26.37;51.70
46211;BME280;52144;48.040;-1.594;2022-07-29T09:01:03;101139.19;;;26.31;52.13
46211;BME280;52144;48.040;-1.594;2022-07-29T09:03:39;101142.78;;;26.66;51.40
46211;BME280;52144;48.040;-1.594;2022-07-29T09:06:12;101142.03;;;26.98;50.59
46211;BME280;52144;48.040;-1.594;2022-07-29T09:08:40;101143.94;;;27.06;50.52
46211;BME280;52144;48.040;-1.594;2022-07-29T09:11:09;101145.66;;;27.07;51.39
46211;BME280;52144;48.040;-1.594;2022-07-29T09:13:37;101143.59;;;27.01;50.94
46211;BME280;52144;48.040;-1.594;2022-07-29T09:16:06;101150.56;;;26.87;51.44
46211;BME280;52144;48.040;-1.594;2022-07-29T09:18:37;101147.41;;;26.66;51.72
46211;BME280;52144;48.040;-1.594;2022-07-29T09:21:06;101159.31;;;26.99;51.61
46211;BME280;52144;48.040;-1.594;2022-07-29T09:24:05;101153.22;;;27.21;51.20
46211;BME280;52144;48.040;-1.594;2022-07-29T09:26:35;101149.84;;;27.60;51.76
46211;BME280;52144;48.040;-1.594;2022-07-29T09:29:11;101159.94;;;27.76;49.82
46211;BME280;52144;48.040;-1.594;2022-07-29T09:31:41;101154.78;;;27.73;50.90
46211;BME280;52144;48.040;-1.594;2022-07-29T09:34:10;101153.94;;;27.65;50.33
46211;BME280;52144;48.040;-1.594;2022-07-29T09:36:39;101157.69;;;27.88;50.55
46211;BME280;52144;48.040;-1.594;2022-07-29T09:39:08;101166.25;;;27.85;51.28
46211;BME280;52144;48.040;-1.594;2022-07-29T09:41:48;101156.81;;;27.79;50.11
46211;BME280;52144;48.040;-1.594;2022-07-29T09:44:16;101150.16;;;27.74;50.29
46211;BME280;52144;48.040;-1.594;2022-07-29T09:46:56;101156.97;;;28.02;49.88
46211;BME280;52144;48.040;-1.594;2022-07-29T09:49:25;101157.97;;;28.26;49.61
46211;BME280;52144;48.040;-1.594;2022-07-29T09:52:01;101155.97;;;27.95;50.86
46211;BME280;52144;48.040;-1.594;2022-07-29T09:54:32;101163.50;;;28.10;49.89
46211;BME280;52144;48.040;-1.594;2022-07-29T09:57:04;101158.66;;;28.20;48.78
46211;BME280;52144;48.040;-1.594;2022-07-29T09:59:33;101157.81;;;28.19;50.22
46211;BME280;52144;48.040;-1.594;2022-07-29T10:02:01;101158.31;;;28.31;50.15
46211;BME280;52144;48.040;-1.594;2022-07-29T10:04:39;101156.50;;;27.74;49.47
46211;BME280;52144;48.040;-1.594;2022-07-29T10:07:07;101160.41;;;28.05;49.10
46211;BME280;52144;48.040;-1.594;2022-07-29T10:09:36;101159.00;;;28.25;48.85
46211;BME280;52144;48.040;-1.594;2022-07-29T10:12:09;101161.97;;;28.63;49.20
46211;BME280;52144;48.040;-1.594;2022-07-29T10:14:41;101157.03;;;28.90;48.63
46211;BME280;52144;48.040;-1.594;2022-07-29T10:17:10;101152.59;;;28.89;49.35
46211;BME280;52144;48.040;-1.594;2022-07-29T10:19:38;101158.00;;;29.28;47.96
46211;BME280;52144;48.040;-1.594;2022-07-29T10:22:07;101160.69;;;29.13;47.41
46211;BME280;52144;48.040;-1.594;2022-07-29T10:24:38;101165.03;;;28.68;49.29
46211;BME280;52144;48.040;-1.594;2022-07-29T10:27:07;101169.28;;;28.23;49.79
46211;BME280;52144;48.040;-1.594;2022-07-29T10:29:35;101169.81;;;28.10;49.40
46211;BME280;52144;48.040;-1.594;2022-07-29T10:32:34;101178.81;;;28.52;49.59
46211;BME280;52144;48.040;-1.594;2022-07-29T10:35:14;101165.03;;;28.04;49.08
46211;BME280;52144;48.040;-1.594;2022-07-29T10:38:02;101172.72;;;28.73;49.67
46211;BME280;52144;48.040;-1.594;2022-07-29T10:40:47;101162.28;;;29.77;47.30
46211;BME280;52144;48.040;-1.594;2022-07-29T10:43:37;101166.84;;;30.37;46.41
46211;BME280;52144;48.040;-1.594;2022-07-29T10:46:10;101173.00;;;30.39;46.59
46211;BME280;52144;48.040;-1.594;2022-07-29T10:49:07;101171.25;;;30.68;44.59
46211;BME280;52144;48.040;-1.594;2022-07-29T10:51:58;101169.84;;;30.72;45.50
46211;BME280;52144;48.040;-1.594;2022-07-29T10:54:40;101171.09;;;29.72;46.37
46211;BME280;52144;48.040;-1.594;2022-07-29T10:57:21;101167.66;;;29.24;46.72
46211;BME280;52144;48.040;-1.594;2022-07-29T11:00:31;101172.28;;;29.70;46.45
46211;BME280;52144;48.040;-1.594;2022-07-29T11:02:59;101162.44;;;29.37;46.93
46211;BME280;52144;48.040;-1.594;2022-07-29T11:05:52;101169.84;;;29.52;46.61
46211;BME280;52144;48.040;-1.594;2022-07-29T11:08:22;101169.53;;;30.08;46.53
46211;BME280;52144;48.040;-1.594;2022-07-29T11:11:30;101164.25;;;30.21;45.43
46211;BME280;52144;48.040;-1.594;2022-07-29T11:14:01;101158.97;;;30.34;45.80
46211;BME280;52144;48.040;-1.594;2022-07-29T11:17:03;101162.94;;;30.32;45.83
46211;BME280;52144;48.040;-1.594;2022-07-29T11:19:33;101166.63;;;30.54;45.45
46211;BME280;52144;48.040;-1.594;2022-07-29T11:22:08;101164.25;;;30.51;44.82
46211;BME280;52144;48.040;-1.594;2022-07-29T11:24:36;101165.47;;;30.63;44.88
46211;BME280;52144;48.040;-1.594;2022-07-29T11:27:17;101171.84;;;30.64;44.57
46211;BME280;52144;48.040;-1.594;2022-07-29T11:29:52;101172.19;;;30.75;44.50
46211;BME280;52144;48.040;-1.594;2022-07-29T11:32:22;101165.28;;;30.65;44.91
46211;BME280;52144;48.040;-1.594;2022-07-29T11:35:13;101170.72;;;30.58;45.09
46211;BME280;52144;48.040;-1.594;2022-07-29T11:37:44;101162.13;;;30.83;44.79
46211;BME280;52144;48.040;-1.594;2022-07-29T11:40:20;101158.63;;;30.89;45.61
46211;BME280;52144;48.040;-1.594;2022-07-29T11:42:49;101159.81;;;30.50;45.31
46211;BME280;52144;48.040;-1.594;2022-07-29T11:45:45;101157.53;;;30.53;44.36
46211;BME280;52144;48.040;-1.594;2022-07-29T11:48:17;101148.41;;;30.53;44.31
46211;BME280;52144;48.040;-1.594;2022-07-29T11:50:58;101165.75;;;30.98;45.05
46211;BME280;52144;48.040;-1.594;2022-07-29T11:53:28;101161.28;;;31.83;43.16
46211;BME280;52144;48.040;-1.594;2022-07-29T11:55:59;101165.03;;;31.32;43.31
46211;BME280;52144;48.040;-1.594;2022-07-29T11:58:29;101172.06;;;32.34;43.70
46211;BME280;52144;48.040;-1.594;2022-07-29T12:00:58;101159.91;;;32.57;42.51
46211;BME280;52144;48.040;-1.594;2022-07-29T12:03:30;101151.38;;;30.36;44.99
46211;BME280;52144;48.040;-1.594;2022-07-29T12:06:02;101159.81;;;30.50;44.82
46211;BME280;52144;48.040;-1.594;2022-07-29T12:08:40;101153.19;;;30.95;44.63
46211;BME280;52144;48.040;-1.594;2022-07-29T12:11:15;101156.56;;;30.76;44.15
46211;BME280;52144;48.040;-1.594;2022-07-29T12:13:48;101155.38;;;30.85;44.00
46211;BME280;52144;48.040;-1.594;2022-07-29T12:16:17;101157.75;;;31.03;43.92
46211;BME280;52144;48.040;-1.594;2022-07-29T12:18:56;101161.47;;;31.53;44.21
46211;BME280;52144;48.040;-1.594;2022-07-29T12:21:25;101158.00;;;31.73;43.54
46211;BME280;52144;48.040;-1.594;2022-07-29T12:23:56;101159.25;;;32.20;43.40
46211;BME280;52144;48.040;-1.594;2022-07-29T12:26:36;101160.63;;;32.44;42.88
46211;BME280;52144;48.040;-1.594;2022-07-29T12:29:06;101157.31;;;33.04;42.27
46211;BME280;52144;48.040;-1.594;2022-07-29T12:31:51;101157.09;;;32.98;41.42
46211;BME280;52144;48.040;-1.594;2022-07-29T12:34:24;101159.38;;;32.82;42.24
46211;BME280;52144;48.040;-1.594;2022-07-29T12:36:54;101163.97;;;32.61;41.84
46211;BME280;52144;48.040;-1.594;2022-07-29T12:39:23;101170.03;;;32.91;41.70
46211;BME280;52144;48.040;-1.594;2022-07-29T12:41:53;101171.97;;;33.04;42.00
46211;BME280;52144;48.040;-1.594;2022-07-29T12:44:43;101177.63;;;32.48;41.62
46211;BME280;52144;48.040;-1.594;2022-07-29T12:47:12;101170.63;;;32.10;42.11
46211;BME280;52144;48.040;-1.594;2022-07-29T12:49:40;101177.00;;;31.89;41.82
46211;BME280;52144;48.040;-1.594;2022-07-29T12:52:25;101172.72;;;31.80;42.08
46211;BME280;52144;48.040;-1.594;2022-07-29T12:54:54;101175.94;;;32.47;41.58
46211;BME280;52144;48.040;-1.594;2022-07-29T12:57:21;101172.56;;;32.93;40.87
46211;BME280;52144;48.040;-1.594;2022-07-29T13:00:07;101177.75;;;32.26;41.06
46211;BME280;52144;48.040;-1.594;2022-07-29T13:02:39;101183.50;;;32.38;41.77
46211;BME280;52144;48.040;-1.594;2022-07-29T13:05:08;101177.53;;;31.99;41.71